createdAt,value
2017-11-04T00:01:20.380Z,37.17
2017-11-04T00:03:46.896Z,35.00
2017-11-04T00:06:13.037Z,35.50
2017-11-04T00:08:39.314Z,36.40
2017-11-04T00:11:06.193Z,34.37
2017-11-04T00:13:33.022Z,36.40
2017-11-04T00:15:59.089Z,36.40
2017-11-04T00:18:25.928Z,36.23
2017-11-04T00:20:52.025Z,32.80
2017-11-04T00:23:18.173Z,33.43
2017-11-04T00:25:44.276Z,34.20
2017-11-04T00:28:10.360Z,34.10
2017-11-04T00:30:36.470Z,35.03
2017-11-04T00:33:02.640Z,33.20
2017-11-04T00:35:28.756Z,35.47
2017-11-04T00:37:54.848Z,34.60
2017-11-04T00:40:21.706Z,35.63
2017-11-04T00:42:48.535Z,35.20
2017-11-04T00:45:14.708Z,34.00
2017-11-04T00:47:40.885Z,34.73
2017-11-04T00:50:06.960Z,36.10
2017-11-04T00:52:33.042Z,34.47
2017-11-04T00:54:59.144Z,34.73
2017-11-04T00:57:25.965Z,33.90
2017-11-04T00:59:52.071Z,34.40
2017-11-04T01:02:18.182Z,34.37
2017-11-04T01:04:45.015Z,33.83
2017-11-04T01:07:11.092Z,32.47
2017-11-04T01:09:37.250Z,33.27
2017-11-04T01:12:03.384Z,32.00
2017-11-04T01:14:29.469Z,32.30
2017-11-04T01:16:56.373Z,32.37
2017-11-04T01:19:22.451Z,31.90
2017-11-04T01:21:48.621Z,30.77
2017-11-04T01:24:15.511Z,34.80
2017-11-04T01:26:41.584Z,33.13
2017-11-04T01:29:07.663Z,33.97
2017-11-04T01:31:34.596Z,33.13
2017-11-04T01:34:00.801Z,33.67
2017-11-04T01:36:27.336Z,31.50
2017-11-04T01:38:53.452Z,30.97
2017-11-04T01:41:19.563Z,30.83
2017-11-04T01:43:46.416Z,30.70
2017-11-04T01:46:13.296Z,31.03
2017-11-04T01:48:39.433Z,29.33
2017-11-04T01:51:05.521Z,30.00
2017-11-04T01:53:31.503Z,29.10
2017-11-04T01:55:57.612Z,32.30
2017-11-04T01:58:24.450Z,30.33
2017-11-04T02:00:50.561Z,32.47
2017-11-04T02:03:16.685Z,31.37
2017-11-04T02:05:42.778Z,31.70
2017-11-04T02:08:08.892Z,29.70
2017-11-04T02:10:35.003Z,31.50
2017-11-04T02:13:01.106Z,32.43
2017-11-04T02:15:27.960Z,31.57
2017-11-04T02:17:54.818Z,31.17
2017-11-04T02:20:21.641Z,32.17
2017-11-04T02:22:47.746Z,30.13
2017-11-04T02:25:13.819Z,31.77
2017-11-04T02:27:39.902Z,30.90
2017-11-04T02:30:06.033Z,33.10
2017-11-04T02:32:32.149Z,31.73
2017-11-04T02:34:58.983Z,30.30
2017-11-04T02:37:25.097Z,31.30
2017-11-04T02:39:51.165Z,31.80
2017-11-04T02:42:17.380Z,32.40
2017-11-04T02:44:43.539Z,30.00
2017-11-04T02:47:09.637Z,30.90
2017-11-04T02:49:35.764Z,30.90
2017-11-04T02:52:01.881Z,34.10
2017-11-04T02:54:27.966Z,29.63
2017-11-04T02:56:55.642Z,30.67
2017-11-04T02:59:21.740Z,30.50
2017-11-04T03:01:47.845Z,29.37
2017-11-04T03:04:13.937Z,30.93
2017-11-04T03:06:40.090Z,29.60
2017-11-04T03:09:06.160Z,29.03
2017-11-04T03:11:32.369Z,28.33
2017-11-04T03:13:58.481Z,28.23
2017-11-04T03:16:24.593Z,29.77
2017-11-04T03:18:50.700Z,29.20
2017-11-04T03:21:16.850Z,29.60
2017-11-04T03:23:42.951Z,28.50
2017-11-04T03:26:09.777Z,28.70
2017-11-04T03:28:35.894Z,28.10
2017-11-04T03:31:02.705Z,29.20
2017-11-04T03:33:28.792Z,28.57
2017-11-04T03:35:55.737Z,29.37
2017-11-04T03:38:21.830Z,29.07
2017-11-04T03:40:47.919Z,30.50
2017-11-04T03:43:14.930Z,29.40
2017-11-04T03:45:41.027Z,29.20
2017-11-04T03:48:07.101Z,27.90
2017-11-04T03:50:33.250Z,29.33
2017-11-04T03:52:59.332Z,28.97
2017-11-04T03:55:26.191Z,29.40
2017-11-04T03:57:52.303Z,27.93
2017-11-04T04:00:18.385Z,26.90
2017-11-04T04:02:44.520Z,27.33
2017-11-04T04:05:10.628Z,25.80
2017-11-04T04:07:37.452Z,27.83
2017-11-04T04:10:03.553Z,27.53
2017-11-04T04:12:29.671Z,26.97
2017-11-04T04:14:55.753Z,25.70
2017-11-04T04:17:21.912Z,27.17
2017-11-04T04:19:48.107Z,26.47
2017-11-04T04:22:14.200Z,27.33
2017-11-04T04:24:40.292Z,27.67
2017-11-04T04:27:06.422Z,27.83
2017-11-04T04:29:32.505Z,26.40
2017-11-04T04:31:58.571Z,26.30
2017-11-04T04:34:24.681Z,25.20
2017-11-04T04:36:50.807Z,25.20
2017-11-04T04:39:16.920Z,25.37
2017-11-04T04:41:43.169Z,26.20
2017-11-04T04:44:09.289Z,26.77
2017-11-04T04:46:35.387Z,24.80
2017-11-04T04:49:01.509Z,25.03
2017-11-04T04:51:27.636Z,25.77
2017-11-04T04:53:53.784Z,26.73
2017-11-04T04:56:19.893Z,26.80
2017-11-04T04:58:45.992Z,28.60
2017-11-04T05:01:12.065Z,28.93
2017-11-04T05:03:38.189Z,27.57
2017-11-04T05:06:04.270Z,28.63
2017-11-04T05:08:30.376Z,28.37
2017-11-04T05:10:56.481Z,29.33
2017-11-04T05:13:22.564Z,27.97
2017-11-04T05:15:48.651Z,27.87
2017-11-04T05:18:14.768Z,29.30
2017-11-04T05:20:40.850Z,28.17
2017-11-04T05:23:06.933Z,29.53
2017-11-04T05:25:33.049Z,27.90
2017-11-04T05:27:59.150Z,29.17
2017-11-04T05:30:25.245Z,27.50
2017-11-04T05:32:51.357Z,29.60
2017-11-04T05:35:17.460Z,28.67
2017-11-04T05:37:43.628Z,29.77
2017-11-04T05:40:09.712Z,29.77
2017-11-04T05:42:35.781Z,31.37
2017-11-04T05:45:01.867Z,30.93
2017-11-04T05:47:27.978Z,29.40
2017-11-04T05:49:54.064Z,29.10
2017-11-04T05:52:20.210Z,30.80
2017-11-04T05:54:46.404Z,30.67
2017-11-04T05:57:12.491Z,30.53
2017-11-04T05:59:38.587Z,31.70
2017-11-04T06:02:04.709Z,30.47
2017-11-04T06:04:30.837Z,30.60
2017-11-04T06:06:56.947Z,31.27
2017-11-04T06:09:23.146Z,30.47
2017-11-04T06:11:49.234Z,32.80
2017-11-04T06:14:15.341Z,31.80
2017-11-04T06:16:42.197Z,29.37
2017-11-04T06:19:09.009Z,28.87
2017-11-04T06:21:35.089Z,29.50
2017-11-04T06:24:01.970Z,28.93
2017-11-04T06:26:28.236Z,30.10
2017-11-04T06:28:54.329Z,28.07
2017-11-04T06:31:20.452Z,31.50
2017-11-04T06:33:47.285Z,29.80
2017-11-04T06:36:13.382Z,28.77
2017-11-04T06:38:39.528Z,30.10
2017-11-04T06:41:05.650Z,30.57
2017-11-04T06:43:31.772Z,30.40
2017-11-04T06:45:57.898Z,27.87
2017-11-04T06:48:24.701Z,29.17
2017-11-04T06:50:50.781Z,31.13
2017-11-04T06:53:16.953Z,28.90
2017-11-04T06:55:43.059Z,31.83
2017-11-04T06:58:09.885Z,29.27
2017-11-04T07:00:36.001Z,29.00
2017-11-04T07:03:02.138Z,29.80
2017-11-04T07:05:28.228Z,28.83
2017-11-04T07:07:54.337Z,29.67
2017-11-04T07:10:20.410Z,28.20
2017-11-04T07:12:47.245Z,30.80
2017-11-04T07:15:13.489Z,29.73
2017-11-04T07:17:39.586Z,31.40
2017-11-04T07:20:05.685Z,30.03
2017-11-04T07:22:32.581Z,27.50
2017-11-04T07:24:58.661Z,29.90
2017-11-04T07:27:24.751Z,29.20
2017-11-04T07:29:50.873Z,28.57
2017-11-04T07:32:16.950Z,29.77
2017-11-04T07:34:43.045Z,27.60
2017-11-04T07:37:09.158Z,30.60
2017-11-04T07:39:36.041Z,30.67
2017-11-04T07:42:02.202Z,28.93
2017-11-04T07:44:28.331Z,27.97
2017-11-04T07:46:54.460Z,30.03
2017-11-04T07:49:20.550Z,29.03
2017-11-04T07:51:46.777Z,29.23
2017-11-04T07:54:12.901Z,28.40
2017-11-04T07:56:39.054Z,28.30
2017-11-04T07:59:05.195Z,28.97
2017-11-04T08:01:31.316Z,29.93
2017-11-04T08:03:57.402Z,27.57
2017-11-04T08:06:24.286Z,26.70
2017-11-04T08:08:50.410Z,29.13
2017-11-04T08:11:17.072Z,27.83
2017-11-04T08:13:43.229Z,29.00
2017-11-04T08:16:09.313Z,28.83
2017-11-04T08:18:35.417Z,28.13
2017-11-04T08:21:02.209Z,28.93
2017-11-04T08:23:30.089Z,29.13
2017-11-04T08:25:57.224Z,28.13
2017-11-04T08:28:23.350Z,29.03
2017-11-04T08:30:49.471Z,27.23
2017-11-04T08:33:15.589Z,28.33
2017-11-04T08:35:41.961Z,29.33
2017-11-04T08:38:08.038Z,28.83
2017-11-04T08:40:34.975Z,27.80
2017-11-04T08:43:01.146Z,27.80
2017-11-04T08:45:28.014Z,26.87
2017-11-04T08:47:54.354Z,25.90
2017-11-04T08:53:19.314Z,25.53
2017-11-04T08:55:45.442Z,25.63
2017-11-04T08:58:12.368Z,26.27
2017-11-04T09:00:38.540Z,23.80
2017-11-04T09:03:05.380Z,26.20
2017-11-04T09:05:31.651Z,26.00
2017-11-04T09:07:58.576Z,25.90
2017-11-04T09:10:24.727Z,25.87
2017-11-04T09:12:50.969Z,24.67
2017-11-04T09:15:17.808Z,24.17
2017-11-04T09:17:43.903Z,23.57
2017-11-04T09:20:09.992Z,23.97
2017-11-04T09:22:36.107Z,24.27
2017-11-04T09:25:02.209Z,25.20
2017-11-04T09:27:28.315Z,26.20
2017-11-04T09:29:55.190Z,26.53
2017-11-04T09:32:21.319Z,25.10
2017-11-04T09:34:48.119Z,24.27
2017-11-04T09:37:14.210Z,24.20
2017-11-04T09:39:41.070Z,23.80
2017-11-04T09:42:07.208Z,24.63
2017-11-04T09:44:33.309Z,24.40
2017-11-04T09:46:59.490Z,24.50
2017-11-04T09:49:25.655Z,24.27
2017-11-04T09:51:51.744Z,23.87
2017-11-04T09:54:19.515Z,23.00
2017-11-04T09:56:45.654Z,23.03
2017-11-04T09:59:12.144Z,24.07
2017-11-04T10:01:38.260Z,23.53
2017-11-04T10:04:04.446Z,25.60
2017-11-04T10:06:30.526Z,25.27
2017-11-04T10:08:57.456Z,25.37
2017-11-04T10:11:23.638Z,25.40
2017-11-04T10:13:49.737Z,24.63
2017-11-04T10:16:16.656Z,25.23
2017-11-04T10:18:42.776Z,25.83
2017-11-04T10:21:08.936Z,25.27
2017-11-04T10:23:35.080Z,24.90
2017-11-04T10:26:01.191Z,25.20
2017-11-04T10:28:27.325Z,25.30
2017-11-04T10:30:53.461Z,25.70
2017-11-04T10:33:19.554Z,25.53
2017-11-04T10:35:45.652Z,25.60
2017-11-04T10:38:11.761Z,25.87
2017-11-04T10:40:38.797Z,26.63
2017-11-04T10:43:04.918Z,26.30
2017-11-04T10:45:31.052Z,26.53
2017-11-04T10:47:57.222Z,27.27
2017-11-04T10:50:24.185Z,25.83
2017-11-04T10:52:50.306Z,25.97
2017-11-04T10:55:16.447Z,27.33
2017-11-04T10:57:43.325Z,26.57
2017-11-04T11:00:10.170Z,28.53
2017-11-04T11:02:36.248Z,25.80
2017-11-04T11:05:02.344Z,26.80
2017-11-04T11:07:29.291Z,26.70
2017-11-04T11:09:55.606Z,27.30
2017-11-04T11:12:22.091Z,27.40
2017-11-04T11:14:49.002Z,25.97
2017-11-04T11:17:15.530Z,27.07
2017-11-04T11:19:41.709Z,27.17
2017-11-04T11:22:07.794Z,26.80
2017-11-04T11:24:34.042Z,27.00
2017-11-04T11:27:00.577Z,26.70
2017-11-04T11:29:27.112Z,26.50
2017-11-04T11:31:53.516Z,26.70
2017-11-04T11:34:20.693Z,27.40
2017-11-04T11:36:46.952Z,27.10
2017-11-04T11:39:13.807Z,26.20
2017-11-04T11:41:40.181Z,27.53
2017-11-04T11:44:06.394Z,29.77
2017-11-04T11:46:33.421Z,25.93
2017-11-04T11:49:00.580Z,25.97
2017-11-04T11:51:26.842Z,27.10
2017-11-04T11:53:53.300Z,30.30
2017-11-04T11:56:20.356Z,28.10
2017-11-04T11:58:46.692Z,27.53
2017-11-04T12:01:13.046Z,29.10
2017-11-04T12:03:39.409Z,26.90
2017-11-04T12:06:05.613Z,28.07
2017-11-04T12:08:32.665Z,29.70
2017-11-04T12:10:58.921Z,29.13
2017-11-04T12:13:25.269Z,29.00
2017-11-04T12:15:51.542Z,29.20
2017-11-04T12:18:17.689Z,28.90
2017-11-04T12:20:43.925Z,30.00
2017-11-04T12:23:10.221Z,29.27
2017-11-04T12:25:37.098Z,29.30
2017-11-04T12:28:03.937Z,27.90
2017-11-04T12:30:30.040Z,27.70
2017-11-04T12:32:56.187Z,27.70
2017-11-04T12:35:22.313Z,28.30
2017-11-04T12:37:48.399Z,27.20
2017-11-04T12:40:22.266Z,27.30
2017-11-04T12:42:48.413Z,28.23
2017-11-04T12:45:14.498Z,27.07
2017-11-04T12:47:41.360Z,26.40
2017-11-04T12:50:07.484Z,27.17
2017-11-04T12:52:33.558Z,27.10
2017-11-04T12:54:59.670Z,27.90
2017-11-04T12:57:26.505Z,27.00
2017-11-04T12:59:52.617Z,26.00
2017-11-04T13:02:18.802Z,25.07
2017-11-04T13:04:45.612Z,26.30
2017-11-04T13:07:11.961Z,24.20
2017-11-04T13:09:38.092Z,25.23
2017-11-04T13:12:04.238Z,25.77
2017-11-04T13:14:30.354Z,25.97
2017-11-04T13:16:56.492Z,25.97
2017-11-04T13:19:22.688Z,24.00
2017-11-04T13:21:48.819Z,27.67
2017-11-04T13:24:14.923Z,27.37
2017-11-04T13:26:41.827Z,25.00
2017-11-04T13:29:08.662Z,24.53
2017-11-04T13:31:34.760Z,25.07
2017-11-04T13:34:00.900Z,24.60
2017-11-04T13:36:33.825Z,25.03
2017-11-04T13:38:59.919Z,27.77
2017-11-04T13:41:26.140Z,26.60
2017-11-04T13:43:52.968Z,24.30
2017-11-04T13:46:19.082Z,25.07
2017-11-04T13:48:45.168Z,30.03
2017-11-04T13:51:11.314Z,24.77
2017-11-04T13:53:37.436Z,25.73
2017-11-04T13:56:04.299Z,24.93
2017-11-04T13:58:30.393Z,25.27
2017-11-04T14:00:56.549Z,25.47
2017-11-04T14:03:22.652Z,24.73
2017-11-04T14:05:48.736Z,24.20
2017-11-04T14:08:15.604Z,24.77
2017-11-04T14:10:42.640Z,23.83
2017-11-04T14:13:09.774Z,24.13
2017-11-04T14:15:35.884Z,23.80
2017-11-04T14:18:02.005Z,24.60
2017-11-04T14:20:28.576Z,24.80
2017-11-04T14:22:54.717Z,25.20
2017-11-04T14:25:20.829Z,25.13
2017-11-04T14:27:46.935Z,24.43
2017-11-04T14:30:13.053Z,23.93
2017-11-04T14:32:39.268Z,27.60
2017-11-04T14:35:06.234Z,26.60
2017-11-04T14:37:32.552Z,25.03
2017-11-04T14:39:58.668Z,25.93
2017-11-04T14:42:24.784Z,25.80
2017-11-04T14:44:52.132Z,25.63
2017-11-04T14:47:18.265Z,24.60
2017-11-04T14:49:44.352Z,24.80
2017-11-04T14:52:11.281Z,26.40
2017-11-04T14:54:37.561Z,24.40
2017-11-04T14:57:03.716Z,25.10
2017-11-04T14:59:29.853Z,26.40
2017-11-04T15:01:55.986Z,26.23
2017-11-04T15:04:22.127Z,27.07
2017-11-04T15:06:48.244Z,25.77
2017-11-04T15:09:15.109Z,26.40
2017-11-04T15:11:41.207Z,25.33
2017-11-04T15:14:07.320Z,27.80
2017-11-04T15:16:33.413Z,26.10
2017-11-04T15:19:00.254Z,27.57
2017-11-04T15:21:27.119Z,26.43
2017-11-04T15:23:53.945Z,26.90
2017-11-04T15:26:20.027Z,26.10
2017-11-04T15:28:46.183Z,25.23
2017-11-04T15:31:12.286Z,26.80
2017-11-04T15:33:39.295Z,27.50
2017-11-04T15:36:05.851Z,28.17
2017-11-04T15:38:32.041Z,26.80
2017-11-04T15:40:58.156Z,28.23
2017-11-04T15:43:24.272Z,25.77
2017-11-04T15:45:50.452Z,27.40
2017-11-04T15:48:17.305Z,27.13
2017-11-04T15:50:44.169Z,26.20
2017-11-04T15:53:10.308Z,27.90
2017-11-04T15:55:36.398Z,28.00
2017-11-04T15:58:02.526Z,25.07
2017-11-04T16:00:28.652Z,26.60
2017-11-04T16:02:54.773Z,27.67
2017-11-04T16:05:20.957Z,27.80
2017-11-04T16:07:48.283Z,26.70
2017-11-04T16:10:14.386Z,26.80
2017-11-04T16:12:40.504Z,25.70
2017-11-04T16:15:06.667Z,27.43
2017-11-04T16:17:33.692Z,26.40
2017-11-04T16:20:00.671Z,24.60
2017-11-04T16:22:26.774Z,27.13
2017-11-04T16:24:52.908Z,27.47
2017-11-04T16:27:19.065Z,24.83
2017-11-04T16:29:45.157Z,25.20
2017-11-04T16:32:11.253Z,23.87
2017-11-04T16:34:37.361Z,26.70
2017-11-04T16:37:03.456Z,25.53
2017-11-04T16:39:30.280Z,24.80
2017-11-04T16:41:56.381Z,25.20
2017-11-04T16:44:22.826Z,25.30
2017-11-04T16:46:48.921Z,26.17
2017-11-04T16:49:15.749Z,24.07
2017-11-04T16:51:41.824Z,26.70
2017-11-04T16:54:08.684Z,26.60
2017-11-04T16:56:34.792Z,25.10
2017-11-04T16:59:00.876Z,25.60
2017-11-04T17:01:26.951Z,24.73
2017-11-04T17:03:53.112Z,25.67
2017-11-04T17:06:19.992Z,25.30
2017-11-04T17:08:46.064Z,25.67
2017-11-04T17:11:12.170Z,23.30
2017-11-04T17:13:38.260Z,24.20
2017-11-04T17:16:04.353Z,23.57
2017-11-04T17:18:30.536Z,26.80
2017-11-04T17:20:56.676Z,22.50
2017-11-04T17:23:22.997Z,23.80
2017-11-04T17:25:49.134Z,24.10
2017-11-04T17:28:15.234Z,26.30
2017-11-04T17:30:42.049Z,24.73
2017-11-04T17:33:08.175Z,24.57
2017-11-04T17:35:34.259Z,23.93
2017-11-04T17:38:00.368Z,24.43
2017-11-04T17:40:26.631Z,23.20
2017-11-04T17:42:53.454Z,26.57
2017-11-04T17:45:19.551Z,24.10
2017-11-04T17:47:46.302Z,23.90
2017-11-04T17:50:12.438Z,24.90
2017-11-04T17:52:38.539Z,23.27
2017-11-04T17:55:04.790Z,25.73
2017-11-04T17:57:30.886Z,24.90
2017-11-04T17:59:56.956Z,22.67
2017-11-04T18:02:23.072Z,25.20
2017-11-04T18:04:49.137Z,23.80
2017-11-04T18:07:15.220Z,23.43
2017-11-04T18:09:41.686Z,25.20
2017-11-04T18:12:07.786Z,26.00
2017-11-04T18:14:33.990Z,28.20
2017-11-04T18:17:00.837Z,25.70
2017-11-04T18:19:31.747Z,27.27
2017-11-04T18:21:57.985Z,27.80
2017-11-04T18:24:26.082Z,24.77
2017-11-04T18:26:52.258Z,25.80
2017-11-04T18:29:19.077Z,25.33
2017-11-04T18:31:45.606Z,24.90
2017-11-04T18:34:13.652Z,27.90
2017-11-04T18:36:39.817Z,25.37
2017-11-04T18:39:07.962Z,25.00
2017-11-04T18:41:39.286Z,24.70
2017-11-04T18:44:10.938Z,27.40
2017-11-04T18:46:42.604Z,25.50
2017-11-04T18:49:09.846Z,24.50
2017-11-04T18:51:41.947Z,25.80
2017-11-04T18:54:12.204Z,24.97
2017-11-04T18:56:39.334Z,26.33
2017-11-04T18:59:06.514Z,26.27
2017-11-04T19:01:32.666Z,23.90
2017-11-04T19:03:59.847Z,25.23
2017-11-04T19:06:26.031Z,24.20
2017-11-04T19:08:52.872Z,24.87
2017-11-04T19:11:19.389Z,26.30
2017-11-04T19:13:45.558Z,26.77
2017-11-04T19:16:13.319Z,24.40
2017-11-04T19:18:40.534Z,25.13
2017-11-04T19:21:06.648Z,27.07
2017-11-04T19:23:33.529Z,26.00
2017-11-04T19:25:59.810Z,25.67
2017-11-04T19:28:25.982Z,25.77
2017-11-04T19:30:53.131Z,26.00
2017-11-04T19:33:20.006Z,24.67
2017-11-04T19:35:46.088Z,26.70
2017-11-04T19:38:12.213Z,24.30
2017-11-04T19:40:38.889Z,23.30
2017-11-04T19:43:05.881Z,25.23
2017-11-04T19:45:32.854Z,24.87
2017-11-04T19:47:59.041Z,25.10
2017-11-04T19:50:25.471Z,22.80
2017-11-04T19:52:51.596Z,25.17
2017-11-04T19:55:17.838Z,25.80
2017-11-04T19:57:43.994Z,26.13
2017-11-04T20:00:10.102Z,25.93
2017-11-04T20:02:36.212Z,27.03
2017-11-04T20:05:03.195Z,26.87
2017-11-04T20:07:29.307Z,27.57
2017-11-04T20:09:56.293Z,26.80
2017-11-04T20:12:22.988Z,26.60
2017-11-04T20:14:49.142Z,28.30
2017-11-04T20:17:15.667Z,27.63
2017-11-04T20:19:41.769Z,26.70
2017-11-04T20:22:07.854Z,27.07
2017-11-04T20:24:34.966Z,26.87
2017-11-04T20:27:01.082Z,26.60
2017-11-04T20:29:27.979Z,28.13
2017-11-04T20:31:54.097Z,28.63
2017-11-04T20:34:20.214Z,28.73
2017-11-04T20:36:47.151Z,29.17
2017-11-04T20:39:13.341Z,28.23
2017-11-04T20:41:39.447Z,28.97
2017-11-04T20:44:06.282Z,27.33
2017-11-04T20:46:32.521Z,29.23
2017-11-04T20:48:58.641Z,27.97
2017-11-04T20:51:24.745Z,30.50
2017-11-04T20:53:51.128Z,27.13
2017-11-04T20:56:17.223Z,29.10
2017-11-04T20:58:43.385Z,27.47
2017-11-04T21:01:09.523Z,29.93
2017-11-04T21:03:35.612Z,29.70
2017-11-04T21:06:02.436Z,29.73
2017-11-04T21:08:28.600Z,29.20
2017-11-04T21:10:55.530Z,33.10
2017-11-04T21:13:21.757Z,30.40
2017-11-04T21:15:47.946Z,30.80
2017-11-04T21:18:14.760Z,30.00
2017-11-04T21:20:40.843Z,31.10
2017-11-04T21:23:07.748Z,31.37
2017-11-04T21:25:33.844Z,32.53
2017-11-04T21:27:59.966Z,34.30
2017-11-04T21:30:26.901Z,31.83
2017-11-04T21:32:53.024Z,34.10
2017-11-04T21:35:19.328Z,32.40
2017-11-04T21:37:45.437Z,31.17
2017-11-04T21:40:12.267Z,31.80
2017-11-04T21:42:39.450Z,31.00
2017-11-04T21:45:06.024Z,29.93
2017-11-04T21:47:32.182Z,31.13
2017-11-04T21:49:58.276Z,29.57
2017-11-04T21:52:24.395Z,29.30
2017-11-04T21:54:50.563Z,29.57
2017-11-04T21:57:17.392Z,30.10
2017-11-04T21:59:43.552Z,29.63
2017-11-04T22:02:10.617Z,29.10
2017-11-04T22:04:37.581Z,28.77
2017-11-04T22:07:03.696Z,30.00
2017-11-04T22:09:29.829Z,30.50
2017-11-04T22:11:56.340Z,29.60
2017-11-04T22:14:22.542Z,30.57
2017-11-04T22:16:48.824Z,30.70
2017-11-04T22:19:14.986Z,30.97
2017-11-04T22:21:41.101Z,31.13
2017-11-04T22:24:07.221Z,28.80
2017-11-04T22:26:33.327Z,29.37
2017-11-04T22:29:00.475Z,29.10
2017-11-04T22:31:27.849Z,30.83
2017-11-04T22:33:54.775Z,30.17
2017-11-04T22:36:20.922Z,31.17
2017-11-04T22:38:47.650Z,30.50
2017-11-04T22:41:13.771Z,31.93
2017-11-04T22:43:39.932Z,32.67
2017-11-04T22:46:06.245Z,33.13
2017-11-04T22:48:32.494Z,31.70
2017-11-04T22:50:58.630Z,31.50
2017-11-04T22:53:24.718Z,32.83
2017-11-04T22:55:50.821Z,30.57
2017-11-04T22:58:17.011Z,30.97
2017-11-04T23:00:44.001Z,31.90
2017-11-04T23:03:10.574Z,34.03
2017-11-04T23:05:36.762Z,33.70
2017-11-04T23:08:03.592Z,31.70
2017-11-04T23:10:29.781Z,35.03
2017-11-04T23:12:55.908Z,36.33
2017-11-04T23:15:22.729Z,34.37
2017-11-04T23:17:48.808Z,33.50
2017-11-04T23:20:14.918Z,32.77
2017-11-04T23:22:41.745Z,32.83
2017-11-04T23:25:07.848Z,30.37
2017-11-04T23:27:34.210Z,30.87
2017-11-04T23:30:00.311Z,32.80
2017-11-04T23:32:26.610Z,32.97
2017-11-04T23:34:52.754Z,32.73
2017-11-04T23:37:18.849Z,32.57
2017-11-04T23:39:44.935Z,33.40
2017-11-04T23:42:11.130Z,32.33
2017-11-04T23:44:37.249Z,30.43
2017-11-04T23:47:03.333Z,30.47
2017-11-04T23:49:29.537Z,31.43
2017-11-04T23:51:56.393Z,28.90
2017-11-04T23:54:22.529Z,29.73
2017-11-04T23:56:48.788Z,28.70
2017-11-04T23:59:15.053Z,28.43
